Flight Number: AVA4154 Duration: 1:45
Departure: Ha noi Noibai Intl (VVNB) at 11:45 Distance: 626.923 Nm
Arrival: Ho Chi Minh City (VVTS) at 13:30 Equipment: A321

Weather Information
Ha Noi, Vietnam (VVNB) 21-01N 105-48E 6M Jun 19, 2024 - 09:00 AM EDT / 2024.06.19 1300 UTC
Wind: from the W (260 degrees) at 9 MPH (8 KT) gusting to 23 MPH (20 KT) (direction variable):0
Visibility: 1 mile(s):0
Sky conditions: mostly cloudy Weather: heavy rain with thunder; Cumulonimbus clouds observed Temperature: 75 F (24 C) Dew Point: 75 F (24 C) Relative Humidity: 100% Pressure (altimeter): 29.62 in. Hg (1003 hPa)
ob: VVNB 191300Z 26008G20KT 190V290 2600 +TSRA FEW005 SCT007 BKN009 SCT030CB 24/24 Q1003 BECMG TL1330 3500 TSRA cycle: 13
Sunrise: 22:18 Sunset: 11:38 (UTC)

Ho Chi Minh, Vietnam (VVTS) 10-49N 106-40E 19M Jun 19, 2024 - 09:00 AM EDT / 2024.06.19 1300 UTC
Wind: from the NW (310 degrees) at 3 MPH (3 KT) (direction variable):0
Visibility: greater than 7 mile(s):0 Temperature: 86 F (30 C) Heat index: 95.0 F (35.0 C):1 Dew Point: 75 F (24 C) Relative Humidity: 70% Pressure (altimeter): 29.71 in. Hg (1006 hPa)
ob: VVTS 191300Z 31003KT 270V340 CAVOK 30/24 Q1006 NOSIG cycle: 13
Sunrise: 22:34 Sunset: 11:15 (UTC)

TAF:2024/06/19 12:37 TAF VVTS 191100Z 1912/2018 22008KT 9999 SCT017 SCT040 TEMPO 2008/2012 22015G28KT 3000 TSRA SCT013 SCT015CB

This route has never been flown.

Route map